EWG30Y EDDK-LOWW
Flight info
| Callsign | EWG30Y |
|---|---|
| Flight time | N/A |
| Altitude | 37000 |
| Route | KUMIK2Q KUMIK L603 TESGA DCT ESATI DCT BARSU DCT EKSOS DCT LULAR DCT RUDAP DCT BUDEX BUDEX2W |
| Aircraft | A320/M-SDE3FGHIRWY/LB1 |
Departure
| Time | 2026-04-30 06:20 |
|---|---|
| Airport | Cologne Bonn Airport (EDDK) |
Arrival
| Time | N/A |
|---|---|
| Airport | Vienna International Airport (LOWW) |
| Time | Latitude | Longitude | Altitude | Speed | Heading |
|---|---|---|---|---|---|
| 2026-04-30 06:00 | 50.87962 | 7.12411 | 232 ft | 0 kts | 245° |
| 2026-04-30 06:14 | 50.87969 | 7.12436 | 232 ft | 4 kts | 246° |
| 2026-04-30 06:14 | 50.87982 | 7.12472 | 235 ft | 4 kts | 225° |
| 2026-04-30 06:14 | 50.88002 | 7.12490 | 234 ft | 4 kts | 157° |
| 2026-04-30 06:14 | 50.88008 | 7.12485 | 236 ft | 0 kts | 137° |
| 2026-04-30 06:16 | 50.88007 | 7.12487 | 236 ft | 2 kts | 137° |
| 2026-04-30 06:17 | 50.87983 | 7.12521 | 233 ft | 7 kts | 139° |
| 2026-04-30 06:17 | 50.87936 | 7.12593 | 232 ft | 10 kts | 122° |
| 2026-04-30 06:17 | 50.87963 | 7.12678 | 232 ft | 9 kts | 45° |
| 2026-04-30 06:17 | 50.87969 | 7.12689 | 233 ft | 0 kts | 49° |
| 2026-04-30 06:18 | 50.87972 | 7.12695 | 233 ft | 2 kts | 49° |
| 2026-04-30 06:18 | 50.87985 | 7.12726 | 235 ft | 6 kts | 57° |
| 2026-04-30 06:18 | 50.88005 | 7.12807 | 238 ft | 9 kts | 80° |
| 2026-04-30 06:18 | 50.88000 | 7.12936 | 239 ft | 14 kts | 107° |
| 2026-04-30 06:19 | 50.87944 | 7.13057 | 239 ft | 1 kts | 137° |
| 2026-04-30 06:19 | 50.87944 | 7.13058 | 239 ft | 0 kts | 137° |
| 2026-04-30 06:19 | 50.87935 | 7.13069 | 239 ft | 9 kts | 138° |
| 2026-04-30 06:20 | 50.87705 | 7.13405 | 239 ft | 81 kts | 137° |
| 2026-04-30 06:20 | 50.87133 | 7.14233 | 250 ft | 139 kts | 137° |
| 2026-04-30 06:20 | 50.86341 | 7.15389 | 488 ft | 163 kts | 135° |
| 2026-04-30 06:20 | 50.85505 | 7.16557 | 1325 ft | 159 kts | 136° |
| 2026-04-30 06:21 | 50.84652 | 7.17758 | 1965 ft | 173 kts | 136° |
| 2026-04-30 06:21 | 50.83732 | 7.19060 | 2614 ft | 180 kts | 136° |
| 2026-04-30 06:21 | 50.82795 | 7.20384 | 3470 ft | 182 kts | 136° |
| 2026-04-30 06:21 | 50.81941 | 7.21886 | 4192 ft | 187 kts | 120° |
| 2026-04-30 06:22 | 50.81468 | 7.23831 | 4882 ft | 194 kts | 99° |
| 2026-04-30 06:22 | 50.81278 | 7.26028 | 5394 ft | 213 kts | 97° |
| 2026-04-30 06:22 | 50.81073 | 7.28446 | 5787 ft | 236 kts | 97° |
| 2026-04-30 06:22 | 50.80843 | 7.31097 | 6471 ft | 248 kts | 97° |
| 2026-04-30 06:23 | 50.80606 | 7.33831 | 7330 ft | 254 kts | 97° |
| 2026-04-30 06:23 | 50.80365 | 7.36617 | 8203 ft | 257 kts | 97° |
| 2026-04-30 06:23 | 50.80119 | 7.39433 | 9076 ft | 261 kts | 96° |
| 2026-04-30 06:23 | 50.79869 | 7.42291 | 9966 ft | 264 kts | 96° |
| 2026-04-30 06:24 | 50.79613 | 7.45234 | 10485 ft | 281 kts | 96° |
| 2026-04-30 06:24 | 50.79336 | 7.48423 | 10754 ft | 305 kts | 96° |
| 2026-04-30 06:24 | 50.79039 | 7.51806 | 11083 ft | 323 kts | 96° |
| 2026-04-30 06:24 | 50.78722 | 7.55354 | 11729 ft | 329 kts | 96° |
| 2026-04-30 06:25 | 50.78492 | 7.58972 | 12440 ft | 333 kts | 89° |
| 2026-04-30 06:25 | 50.78699 | 7.62620 | 13188 ft | 335 kts | 79° |